createdAt,value
2018-07-29T00:07:48.728Z,59.00
2018-07-29T00:10:24.086Z,59.32
2018-07-29T00:13:02.534Z,59.60
2018-07-29T00:15:45.137Z,60.50
2018-07-29T00:18:21.581Z,60.03
2018-07-29T00:20:55.592Z,60.22
2018-07-29T00:23:34.353Z,59.40
2018-07-29T00:26:13.882Z,59.61
2018-07-29T00:28:57.266Z,60.79
2018-07-29T00:31:47.189Z,60.22
2018-07-29T00:34:16.990Z,60.17
2018-07-29T00:36:47.079Z,60.74
2018-07-29T00:39:16.889Z,60.79
2018-07-29T00:41:46.425Z,61.15
2018-07-29T00:44:16.065Z,61.16
2018-07-29T00:46:45.754Z,61.30
2018-07-29T00:49:15.649Z,60.60
2018-07-29T00:51:45.451Z,59.57
2018-07-29T00:54:15.399Z,59.99
2018-07-29T00:56:45.146Z,59.27
2018-07-29T00:59:14.926Z,59.23
2018-07-29T01:01:45.783Z,59.66
2018-07-29T01:04:15.829Z,58.55
2018-07-29T01:06:45.348Z,59.60
2018-07-29T01:09:15.056Z,59.76
2018-07-29T01:11:44.860Z,58.53
2018-07-29T01:14:14.583Z,58.61
2018-07-29T01:16:43.974Z,57.80
2018-07-29T01:19:13.912Z,59.00
2018-07-29T01:21:44.316Z,58.97
2018-07-29T01:24:15.635Z,59.03
2018-07-29T01:26:45.382Z,59.46
2018-07-29T01:29:15.193Z,60.05
2018-07-29T01:31:48.050Z,58.77
2018-07-29T01:34:19.906Z,58.81
2018-07-29T01:36:51.608Z,58.17
2018-07-29T01:39:21.719Z,58.35
2018-07-29T01:41:51.432Z,58.37
2018-07-29T01:44:21.163Z,58.14
2018-07-29T01:46:51.364Z,57.96
2018-07-29T01:49:21.744Z,58.21
2018-07-29T01:51:53.131Z,58.91
2018-07-29T01:54:24.083Z,59.35
2018-07-29T01:56:54.119Z,58.55
2018-07-29T01:59:26.164Z,59.48
2018-07-29T02:01:58.748Z,59.17
2018-07-29T02:04:29.638Z,60.08
2018-07-29T02:07:02.876Z,59.22
2018-07-29T02:09:33.996Z,58.70
2018-07-29T02:12:04.932Z,59.08
2018-07-29T02:14:36.302Z,58.76
2018-07-29T02:17:07.356Z,59.53
2018-07-29T02:19:37.810Z,58.56
2018-07-29T02:22:09.358Z,60.19
2018-07-29T02:24:40.947Z,60.48
2018-07-29T02:27:13.777Z,60.56
2018-07-29T02:29:43.818Z,60.61
2018-07-29T02:32:14.778Z,60.30
2018-07-29T02:34:45.900Z,60.66
2018-07-29T02:39:55.463Z,59.82
2018-07-29T02:42:26.927Z,59.18
2018-07-29T02:44:58.142Z,59.24
2018-07-29T02:47:28.893Z,59.41
2018-07-29T02:49:59.761Z,58.94
2018-07-29T02:52:31.200Z,59.48
2018-07-29T02:55:03.080Z,58.59
2018-07-29T02:57:33.906Z,58.77
2018-07-29T03:00:05.827Z,59.25
2018-07-29T03:02:39.186Z,59.17
2018-07-29T03:05:14.898Z,59.12
2018-07-29T03:07:46.942Z,58.79
2018-07-29T03:10:18.146Z,58.96
2018-07-29T03:12:49.824Z,58.78
2018-07-29T03:15:22.668Z,59.43
2018-07-29T03:17:54.885Z,58.95
2018-07-29T03:20:26.334Z,58.74
2018-07-29T03:23:02.417Z,58.71
2018-07-29T03:25:40.966Z,57.93
2018-07-29T03:28:22.214Z,58.19
2018-07-29T03:31:04.066Z,58.50
2018-07-29T03:33:42.348Z,58.62
2018-07-29T03:36:20.334Z,59.16
2018-07-29T03:39:00.284Z,59.08
2018-07-29T03:41:38.687Z,59.99
2018-07-29T03:44:21.000Z,58.73
2018-07-29T03:47:01.794Z,58.75
2018-07-29T03:49:44.638Z,57.58
2018-07-29T03:52:27.705Z,58.28
2018-07-29T03:55:06.342Z,57.36
2018-07-29T03:57:42.601Z,58.32
2018-07-29T04:00:21.114Z,58.66
2018-07-29T04:02:56.675Z,58.82
2018-07-29T04:05:31.261Z,57.92
2018-07-29T04:08:08.480Z,57.19
2018-07-29T04:10:53.037Z,57.53
2018-07-29T04:13:33.282Z,57.72
2018-07-29T04:16:12.198Z,57.24
2018-07-29T04:18:54.436Z,56.57
2018-07-29T04:21:29.661Z,54.91
2018-07-29T04:24:09.635Z,56.49
2018-07-29T04:26:46.270Z,56.42
2018-07-29T04:29:23.872Z,55.70
2018-07-29T04:31:59.231Z,55.94
2018-07-29T04:34:40.207Z,54.85
2018-07-29T04:37:20.868Z,54.23
2018-07-29T04:39:58.416Z,52.93
2018-07-29T04:42:34.373Z,52.97
2018-07-29T04:45:13.327Z,52.51
2018-07-29T04:47:52.039Z,52.00
2018-07-29T04:50:26.515Z,51.45
2018-07-29T04:55:42.796Z,51.71
2018-07-29T04:58:20.604Z,49.47
2018-07-29T05:00:56.473Z,50.26
2018-07-29T05:03:30.822Z,50.82
2018-07-29T05:06:09.716Z,50.00
2018-07-29T05:08:44.744Z,49.01
2018-07-29T05:11:24.283Z,49.64
2018-07-29T05:14:03.722Z,49.31
2018-07-29T05:16:44.703Z,48.76
2018-07-29T05:19:28.345Z,47.39
2018-07-29T05:22:02.085Z,47.16
2018-07-29T05:24:37.901Z,47.29
2018-07-29T05:27:14.965Z,47.51
2018-07-29T05:29:56.800Z,46.47
2018-07-29T05:32:37.337Z,45.06
2018-07-29T05:35:15.272Z,45.25
2018-07-29T05:37:51.508Z,45.43
2018-07-29T05:40:31.161Z,45.04
2018-07-29T05:43:02.064Z,44.86
2018-07-29T05:45:36.314Z,45.52
2018-07-29T05:48:14.429Z,44.54
2018-07-29T05:50:55.813Z,44.72
2018-07-29T05:53:31.963Z,44.37
2018-07-29T05:56:12.036Z,44.75
2018-07-29T05:58:54.000Z,45.28
2018-07-29T06:01:35.105Z,44.24
2018-07-29T06:04:16.096Z,43.18
2018-07-29T06:06:55.613Z,44.12
2018-07-29T06:09:36.131Z,42.48
2018-07-29T06:12:10.727Z,41.99
2018-07-29T06:14:49.740Z,42.79
2018-07-29T06:17:31.380Z,43.85
2018-07-29T06:20:06.156Z,43.74
2018-07-29T06:22:44.428Z,43.90
2018-07-29T06:25:21.850Z,44.71
2018-07-29T06:28:04.684Z,43.84
2018-07-29T06:30:50.618Z,43.68
2018-07-29T06:33:25.848Z,43.62
2018-07-29T06:36:13.517Z,44.56
2018-07-29T06:39:00.985Z,44.41
2018-07-29T06:41:34.707Z,43.94
2018-07-29T06:44:14.928Z,42.62
2018-07-29T06:46:50.078Z,43.76
2018-07-29T06:49:29.280Z,45.03
2018-07-29T06:52:03.570Z,44.65
2018-07-29T06:54:43.844Z,45.05
2018-07-29T06:57:23.981Z,43.85
2018-07-29T06:59:57.815Z,42.99
2018-07-29T07:02:35.549Z,42.52
2018-07-29T07:05:08.944Z,42.89
2018-07-29T07:07:47.845Z,42.30
2018-07-29T07:10:26.490Z,42.07
2018-07-29T07:13:04.411Z,41.28
2018-07-29T07:15:40.380Z,42.09
2018-07-29T07:18:19.453Z,41.45
2018-07-29T07:20:56.352Z,42.14
2018-07-29T07:26:09.472Z,41.01
2018-07-29T07:28:49.295Z,40.67
2018-07-29T07:31:31.809Z,41.09
2018-07-29T07:34:14.302Z,41.30
2018-07-29T07:39:30.551Z,40.09
2018-07-29T07:42:10.814Z,39.93
2018-07-29T07:44:50.887Z,40.19
2018-07-29T07:47:26.566Z,39.25
2018-07-29T07:52:48.130Z,39.47
2018-07-29T07:55:29.804Z,38.24
2018-07-29T07:58:07.907Z,39.24
2018-07-29T08:00:46.371Z,39.14
2018-07-29T08:03:26.973Z,39.13
2018-07-29T08:06:03.373Z,37.88
2018-07-29T08:08:42.623Z,38.41
2018-07-29T08:11:22.266Z,38.64
2018-07-29T08:13:59.320Z,38.50
2018-07-29T08:16:34.691Z,37.07
2018-07-29T08:19:12.972Z,37.79
2018-07-29T08:21:54.275Z,38.06
2018-07-29T08:24:37.167Z,37.32
2018-07-29T08:29:56.148Z,37.49
2018-07-29T08:32:39.456Z,36.67
2018-07-29T08:35:19.207Z,36.14
2018-07-29T08:37:59.668Z,36.01
2018-07-29T08:40:39.232Z,36.96
2018-07-29T08:43:17.980Z,37.02
2018-07-29T08:45:55.592Z,35.79
2018-07-29T08:51:14.520Z,35.05
2018-07-29T08:53:54.038Z,34.45
2018-07-29T08:56:33.093Z,34.34
2018-07-29T08:59:09.259Z,33.92
2018-07-29T09:01:50.827Z,34.89
2018-07-29T09:04:29.908Z,34.18
2018-07-29T09:07:06.273Z,36.01
2018-07-29T09:09:45.454Z,34.03
2018-07-29T09:12:23.646Z,33.53
2018-07-29T09:15:05.814Z,33.08
2018-07-29T09:17:48.227Z,33.63
2018-07-29T09:20:26.665Z,35.35
2018-07-29T09:23:10.506Z,33.07
2018-07-29T09:25:45.601Z,32.50
2018-07-29T09:28:23.466Z,34.61
2018-07-29T09:31:00.705Z,31.09
2018-07-29T09:33:38.304Z,33.30
2018-07-29T09:36:14.040Z,30.42
2018-07-29T09:38:57.084Z,32.31
2018-07-29T09:41:38.169Z,30.31
2018-07-29T09:44:13.919Z,30.52
2018-07-29T09:46:53.144Z,31.69
2018-07-29T09:49:29.294Z,30.33
2018-07-29T09:52:08.850Z,30.92
2018-07-29T09:54:50.523Z,32.73
2018-07-29T09:57:23.607Z,31.45
2018-07-29T09:59:59.240Z,32.64
2018-07-29T10:02:39.556Z,32.79
2018-07-29T10:05:18.756Z,32.08
2018-07-29T10:07:52.898Z,31.38
2018-07-29T10:10:32.332Z,30.31
2018-07-29T10:13:15.349Z,30.95
2018-07-29T10:15:54.804Z,31.15
2018-07-29T10:18:31.953Z,30.82
2018-07-29T10:21:12.739Z,30.47
2018-07-29T10:23:48.215Z,30.92
2018-07-29T10:26:24.341Z,30.99
2018-07-29T10:29:02.566Z,29.94
2018-07-29T10:31:34.347Z,31.07
2018-07-29T10:34:08.814Z,29.09
2018-07-29T10:36:48.333Z,29.32
2018-07-29T10:39:28.988Z,30.10
2018-07-29T10:44:50.209Z,31.78
2018-07-29T10:47:29.040Z,30.23
2018-07-29T10:50:12.381Z,29.74
2018-07-29T10:52:49.786Z,30.92
2018-07-29T10:55:25.095Z,27.86
2018-07-29T10:58:02.548Z,28.83
2018-07-29T11:00:39.052Z,27.90
2018-07-29T11:03:14.053Z,26.83
2018-07-29T11:05:49.004Z,26.47
2018-07-29T11:08:31.652Z,25.85
2018-07-29T11:11:10.535Z,26.06
2018-07-29T11:13:49.409Z,27.52
2018-07-29T11:16:28.169Z,27.57
2018-07-29T11:19:13.399Z,26.00
2018-07-29T11:21:52.043Z,25.68
2018-07-29T11:24:26.717Z,25.80
2018-07-29T11:27:03.710Z,25.09
2018-07-29T11:29:43.709Z,25.46
2018-07-29T11:32:18.752Z,24.47
2018-07-29T11:35:00.069Z,24.53
2018-07-29T11:37:34.681Z,26.80
2018-07-29T11:40:15.084Z,24.66
2018-07-29T11:42:52.125Z,24.28
2018-07-29T11:45:28.538Z,25.29
2018-07-29T11:48:10.182Z,25.37
2018-07-29T11:50:50.826Z,24.32
2018-07-29T11:53:27.651Z,23.89
2018-07-29T11:56:03.540Z,24.64
2018-07-29T11:58:39.695Z,26.46
2018-07-29T12:01:17.464Z,24.18
2018-07-29T12:06:35.927Z,24.07
2018-07-29T12:09:18.777Z,24.48
2018-07-29T12:11:58.143Z,25.94
2018-07-29T12:14:35.411Z,26.38
2018-07-29T12:17:10.881Z,24.24
2018-07-29T12:19:45.188Z,26.69
2018-07-29T12:22:20.181Z,24.56
2018-07-29T12:24:58.813Z,23.87
2018-07-29T12:27:39.484Z,25.04
2018-07-29T12:30:15.116Z,24.28
2018-07-29T12:32:53.315Z,24.66
2018-07-29T12:35:30.327Z,23.75
2018-07-29T12:38:08.929Z,22.62
2018-07-29T12:40:48.544Z,22.89
2018-07-29T12:43:29.202Z,24.68
2018-07-29T12:46:07.665Z,24.64
2018-07-29T12:48:45.251Z,23.58
2018-07-29T12:51:22.644Z,23.59
2018-07-29T12:54:03.010Z,24.72
2018-07-29T12:56:38.462Z,23.24
2018-07-29T12:59:22.207Z,22.33
2018-07-29T13:01:58.077Z,22.31
2018-07-29T13:04:37.798Z,25.08
2018-07-29T13:09:57.791Z,26.42
2018-07-29T13:12:37.098Z,24.58
2018-07-29T13:15:12.761Z,26.46
2018-07-29T13:20:33.337Z,26.72
2018-07-29T13:23:13.977Z,27.20
2018-07-29T13:25:49.772Z,27.90
2018-07-29T13:28:26.561Z,28.56
2018-07-29T13:31:07.706Z,25.84
2018-07-29T13:33:45.156Z,27.85
2018-07-29T13:36:20.484Z,25.03
2018-07-29T13:38:55.913Z,26.66
2018-07-29T13:41:37.430Z,29.02
2018-07-29T13:44:18.862Z,28.68
2018-07-29T13:46:58.253Z,28.45
2018-07-29T13:49:35.323Z,29.74
2018-07-29T13:52:12.949Z,28.66
2018-07-29T13:54:52.588Z,29.79
2018-07-29T13:57:31.526Z,29.65
2018-07-29T14:00:18.960Z,30.59
2018-07-29T14:02:57.037Z,29.49
2018-07-29T14:05:30.644Z,30.06
2018-07-29T14:08:10.613Z,29.75
2018-07-29T14:10:50.829Z,30.82
2018-07-29T14:13:36.290Z,29.31
2018-07-29T14:16:17.962Z,30.92
2018-07-29T14:18:59.464Z,30.37
2018-07-29T14:21:35.492Z,30.18
2018-07-29T14:29:55.256Z,31.77
2018-07-29T14:32:37.609Z,31.08
2018-07-29T14:35:20.991Z,32.54
2018-07-29T14:38:00.383Z,31.68
2018-07-29T14:40:45.761Z,31.72
2018-07-29T14:43:28.812Z,30.48
2018-07-29T14:46:11.333Z,31.29
2018-07-29T14:48:53.936Z,31.88
2018-07-29T14:54:17.036Z,38.10
2018-07-29T14:56:58.507Z,37.28
2018-07-29T14:59:33.847Z,38.40
2018-07-29T15:02:14.261Z,38.21
2018-07-29T15:04:49.130Z,38.40
2018-07-29T15:07:31.478Z,38.47
2018-07-29T15:10:15.703Z,39.31
2018-07-29T15:15:39.862Z,37.62
2018-07-29T15:18:26.440Z,37.75
2018-07-29T15:21:09.941Z,37.15
2018-07-29T15:23:45.836Z,37.33
2018-07-29T15:26:28.863Z,37.53
2018-07-29T15:29:08.782Z,37.70
2018-07-29T15:31:45.892Z,38.10
2018-07-29T15:34:28.850Z,38.22
2018-07-29T15:37:14.210Z,37.79
2018-07-29T15:39:54.555Z,38.54
2018-07-29T15:42:33.390Z,38.50
2018-07-29T15:45:16.055Z,38.66
2018-07-29T15:47:52.380Z,37.74
2018-07-29T15:50:27.346Z,37.41
2018-07-29T15:53:06.055Z,38.13
2018-07-29T15:55:48.002Z,38.19
2018-07-29T15:58:30.535Z,37.63
2018-07-29T16:01:18.213Z,36.36
2018-07-29T16:03:54.161Z,36.04
2018-07-29T16:06:33.733Z,35.16
2018-07-29T16:09:20.291Z,35.14
2018-07-29T16:14:42.254Z,33.83
2018-07-29T16:20:11.165Z,35.67
2018-07-29T16:22:54.677Z,33.96
2018-07-29T16:25:34.707Z,34.52
2018-07-29T16:28:12.061Z,34.30
2018-07-29T16:30:53.224Z,34.26
2018-07-29T16:33:32.846Z,34.99
2018-07-29T16:38:52.532Z,35.75
2018-07-29T16:41:31.088Z,35.52
2018-07-29T16:44:14.361Z,35.52
2018-07-29T16:46:56.710Z,35.94
2018-07-29T16:49:42.027Z,35.67
2018-07-29T16:52:21.559Z,36.16
2018-07-29T16:54:57.865Z,36.47
2018-07-29T16:57:42.162Z,37.50
2018-07-29T17:00:24.057Z,36.15
2018-07-29T17:03:06.874Z,36.79
2018-07-29T17:05:46.384Z,36.10
2018-07-29T17:08:24.482Z,35.65
2018-07-29T17:11:07.099Z,33.96
2018-07-29T17:13:41.204Z,34.37
2018-07-29T17:16:22.316Z,34.46
2018-07-29T17:19:02.901Z,35.77
2018-07-29T17:21:42.966Z,36.45
2018-07-29T17:24:26.328Z,37.13
2018-07-29T17:29:51.859Z,36.82
2018-07-29T17:32:32.752Z,38.41
2018-07-29T17:35:16.084Z,38.06
2018-07-29T17:37:56.024Z,38.00
2018-07-29T17:40:32.278Z,38.76
2018-07-29T17:43:21.132Z,38.50
2018-07-29T17:46:00.418Z,39.73
2018-07-29T17:48:43.244Z,39.13
2018-07-29T17:51:27.495Z,39.03
2018-07-29T17:54:11.605Z,40.57
2018-07-29T17:56:51.080Z,39.96
2018-07-29T17:59:34.224Z,39.85
2018-07-29T18:02:16.074Z,39.94
2018-07-29T18:04:58.983Z,39.29
2018-07-29T18:07:34.896Z,39.19
2018-07-29T18:10:13.007Z,39.37
2018-07-29T18:12:49.234Z,39.67
2018-07-29T18:15:38.279Z,39.92
2018-07-29T18:18:13.046Z,39.34
2018-07-29T18:20:50.384Z,40.39
2018-07-29T18:23:30.098Z,40.36
2018-07-29T18:26:09.391Z,40.28
2018-07-29T18:28:47.551Z,40.16
2018-07-29T18:31:27.779Z,40.90
2018-07-29T18:36:50.857Z,41.56
2018-07-29T18:39:28.745Z,42.18
2018-07-29T18:42:08.996Z,43.00
2018-07-29T18:44:55.132Z,43.36
2018-07-29T18:47:32.950Z,43.65
2018-07-29T18:50:10.798Z,43.03
2018-07-29T18:52:51.938Z,43.22
2018-07-29T18:55:29.299Z,43.71
2018-07-29T18:58:08.316Z,44.34
2018-07-29T19:00:47.986Z,44.96
2018-07-29T19:03:24.665Z,44.47
2018-07-29T19:06:01.937Z,43.96
2018-07-29T19:11:31.136Z,45.64
2018-07-29T19:17:00.973Z,45.87
2018-07-29T19:19:39.827Z,46.72
2018-07-29T19:25:01.548Z,45.87
2018-07-29T19:27:40.864Z,46.87
2018-07-29T19:30:24.639Z,46.94
2018-07-29T19:33:09.517Z,47.18
2018-07-29T19:35:52.025Z,47.09
2018-07-29T19:38:27.621Z,47.78
2018-07-29T19:41:07.237Z,47.50
2018-07-29T19:43:49.609Z,46.85
2018-07-29T19:46:27.273Z,48.38
2018-07-29T19:49:11.832Z,47.25
2018-07-29T19:51:51.307Z,47.87
2018-07-29T19:54:31.953Z,46.63
2018-07-29T19:57:09.358Z,48.21
2018-07-29T19:59:50.537Z,47.87
2018-07-29T20:02:27.292Z,48.16
2018-07-29T20:05:03.407Z,47.25
2018-07-29T20:10:37.902Z,49.15
2018-07-29T20:13:22.177Z,49.15
2018-07-29T20:16:01.218Z,48.90
2018-07-29T20:18:34.851Z,49.18
2018-07-29T20:21:13.014Z,49.26
2018-07-29T20:23:51.896Z,48.59
2018-07-29T20:29:08.597Z,49.42
2018-07-29T20:31:49.304Z,48.03
2018-07-29T20:34:28.978Z,49.13
2018-07-29T20:37:07.701Z,48.67
2018-07-29T20:39:43.925Z,48.92
2018-07-29T20:42:27.801Z,48.47
2018-07-29T20:45:08.829Z,49.96
2018-07-29T20:47:50.686Z,49.91
2018-07-29T20:50:31.093Z,48.89
2018-07-29T20:53:13.755Z,49.89
2018-07-29T20:55:55.556Z,49.84
2018-07-29T20:58:39.413Z,49.21
2018-07-29T21:01:14.661Z,49.79
2018-07-29T21:03:51.848Z,49.74
2018-07-29T21:06:28.719Z,50.76
2018-07-29T21:09:06.010Z,50.77
2018-07-29T21:14:28.975Z,51.30
2018-07-29T21:17:05.264Z,50.43
2018-07-29T21:19:50.492Z,51.55
2018-07-29T21:22:28.511Z,50.94
2018-07-29T21:27:46.394Z,52.06
2018-07-29T21:30:22.158Z,51.85
2018-07-29T21:35:50.805Z,51.41
2018-07-29T21:38:25.749Z,51.70
2018-07-29T21:41:07.964Z,51.96
2018-07-29T21:43:48.165Z,52.26
2018-07-29T21:46:39.313Z,51.88
2018-07-29T21:49:23.465Z,52.15
2018-07-29T21:52:04.158Z,52.16
2018-07-29T21:54:44.670Z,51.25
2018-07-29T21:57:23.321Z,51.59
2018-07-29T22:00:07.100Z,51.76
2018-07-29T22:02:49.671Z,51.51
2018-07-29T22:05:35.593Z,52.86
2018-07-29T22:08:13.414Z,52.61
2018-07-29T22:10:54.958Z,53.60
2018-07-29T22:13:32.670Z,52.62
2018-07-29T22:16:15.755Z,53.08
2018-07-29T22:18:56.870Z,53.50
2018-07-29T22:21:34.228Z,54.71
2018-07-29T22:24:15.344Z,53.83
2018-07-29T22:27:00.201Z,53.59
2018-07-29T22:29:41.951Z,54.88
2018-07-29T22:32:20.434Z,55.40
2018-07-29T22:35:01.136Z,54.63
2018-07-29T22:37:41.771Z,54.53
2018-07-29T22:40:22.641Z,54.87
2018-07-29T22:43:08.402Z,54.17
2018-07-29T22:45:52.583Z,55.03
2018-07-29T22:48:31.877Z,54.34
2018-07-29T22:57:02.175Z,54.20
2018-07-29T22:59:37.688Z,55.30
2018-07-29T23:02:15.128Z,54.32
2018-07-29T23:04:51.123Z,54.56
2018-07-29T23:10:24.512Z,55.82
2018-07-29T23:13:08.601Z,55.03
2018-07-29T23:15:49.120Z,55.40
2018-07-29T23:18:33.702Z,55.36
2018-07-29T23:21:10.961Z,56.28
2018-07-29T23:23:49.720Z,55.57
2018-07-29T23:26:31.796Z,55.93
2018-07-29T23:29:14.912Z,55.89
2018-07-29T23:31:58.718Z,56.33
2018-07-29T23:34:43.945Z,56.00
2018-07-29T23:37:24.354Z,55.64
2018-07-29T23:40:05.071Z,56.40
2018-07-29T23:45:23.540Z,56.77
2018-07-29T23:48:07.218Z,56.96
2018-07-29T23:50:51.449Z,56.85
2018-07-29T23:53:28.035Z,56.73
2018-07-29T23:58:55.172Z,55.89
